Tor Viking — SLJT — position and weather

sailwx.info

Track history (hours):
 
Tides and Currents Weather Stations Pressure Air Temp Water Temp Dewpoint Dewpoint Depression Visibility Wind Speed Wind Dir Waves Ship Positions

Tor Viking

Last reported at 2017-Mar-28 07:33 UTC. Time now 2017-Mar-28 15:57 UTC.
Position N 56°41' W 000°22'.

Length 84 m; draft 6.7 m.

Type: Towing. MMSI: 266004000.

Date/timePositionNaut miles runAvg speedWind from/ knotsBaromVisibWave heightAir tempDewpointWater temp
2017-Mar-28 07:33N 56°41' W 000°22'1110.7
2017-Mar-28 06:33N 56°42' W 000°42'1110.9
2017-Mar-28 05:30N 56°42' W 001°03'1010.8
2017-Mar-28 04:33N 56°42' W 001°21'1111.0
2017-Mar-28 03:33N 56°42' W 001°41'1110.8
2017-Mar-28 02:33N 56°42' W 002°01'10 9.9
2017-Mar-28 01:33N 56°42' W 002°19'5 4.7
2017-Mar-28 00:29N 56°42' W 002°28'  
2017-Mar-25 10:33N 56°42' W 002°19'6 2.9
2017-Mar-25 08:31N 56°44' W 002°09'0 0.1
2017-Mar-25 07:30N 56°44' W 002°09'0 0.0
2017-Mar-25 06:33N 56°44' W 002°09'4 3.8
2017-Mar-25 05:29N 56°45' W 002°02'7 7.1
2017-Mar-25 04:33N 56°46' W 001°50'7 6.9
2017-Mar-25 03:33N 56°47' W 001°38'9 9.4
2017-Mar-25 02:33N 56°48' W 001°21'27810.6
2017-Mar-24 00:28N 57°33' E 007°05'5411.1
2017-Mar-23 19:33N 57°42' E 008°45'1110.8
2017-Mar-23 18:33N 57°44' E 009°05'1110.6
2017-Mar-23 17:32N 57°45' E 009°25'1210.8
2017-Mar-23 16:26N 57°47' E 009°47'2210.7
2017-Mar-23 14:22N 57°48' E 010°29'810.2
2017-Mar-23 13:33N 57°48' E 010°44'1010.3
2017-Mar-23 12:33N 57°42' E 010°60'1110.6
2017-Mar-23 11:33N 57°35' E 011°14'1111.0
2017-Mar-23 10:33N 57°26' E 011°28'1111.2
2017-Mar-23 09:33N 57°16' E 011°35'1311.5
2017-Mar-23 08:24N 57°04' E 011°44'2111.2
2017-Mar-23 06:33N 56°45' E 012°00'1410.4
2017-Mar-23 05:14N 56°32' E 012°10'2110.4
2017-Mar-23 03:14N 56°14' E 012°26'710.4
2017-Mar-23 02:33N 56°08' E 012°32'1010.1
2017-Mar-23 01:33N 55°59' E 012°42'6 5.6
2017-Mar-23 00:33N 55°54' E 012°45'0 0.0
2017-Mar-22 23:33N 55°54' E 012°45'0 0.0
2017-Mar-22 22:33N 55°54' E 012°45'0 0.1
2017-Mar-22 21:33N 55°54' E 012°45'0 0.0
2017-Mar-22 20:33N 55°54' E 012°45'2 2.5
2017-Mar-22 19:33N 55°52' E 012°49'1 1.0
2017-Mar-22 18:31N 55°51' E 012°50'0 0.0
2017-Mar-22 17:31N 55°51' E 012°50'0 0.0
2017-Mar-22 16:31N 55°51' E 012°50'0 0.0
2017-Mar-22 15:31N 55°51' E 012°50'0 0.0
2017-Mar-22 14:31N 55°51' E 012°50'0 0.0
2017-Mar-22 13:31N 55°51' E 012°50'0 0.0
2017-Mar-22 12:31N 55°51' E 012°50'0 0.0
2017-Mar-22 11:31N 55°51' E 012°50'0 0.0
2017-Mar-22 10:31N 55°51' E 012°50'0 0.0
2017-Mar-22 09:25N 55°51' E 012°50'0 0.0
2017-Mar-22 08:31N 55°51' E 012°50'0 0.0
2017-Mar-22 07:31N 55°51' E 012°50'0 0.0
2017-Mar-22 06:31N 55°51' E 012°50'0 0.0
2017-Mar-22 05:31N 55°51' E 012°50'0 0.0
2017-Mar-22 04:31N 55°51' E 012°50'0 0.0
2017-Mar-22 03:31N 55°51' E 012°50'0 0.0
2017-Mar-22 02:31N 55°51' E 012°50'0 0.0
2017-Mar-22 01:31N 55°51' E 012°50'0 0.0
2017-Mar-22 00:31N 55°51' E 012°50'0 0.0
2017-Mar-21 23:31N 55°51' E 012°50'0 0.0
2017-Mar-21 22:31N 55°51' E 012°50'0 0.0
2017-Mar-21 21:31N 55°51' E 012°50'0 0.0
2017-Mar-21 20:31N 55°51' E 012°50'0 0.0
2017-Mar-21 19:31N 55°51' E 012°50'0 0.0
2017-Mar-21 18:31N 55°51' E 012°50'0 0.0
2017-Mar-21 17:31N 55°51' E 012°50'0 0.0
2017-Mar-21 16:34N 55°51' E 012°50'3 3.2
2017-Mar-21 15:34N 55°53' E 012°45'6 6.0
2017-Mar-21 14:34N 55°47' E 012°43'8 7.6
2017-Mar-21 13:33N 55°40' E 012°42'9 9.2
2017-Mar-21 12:34N 55°31' E 012°43'1110.6
2017-Mar-21 11:34N 55°20' E 012°40'10 9.8
2017-Mar-21 10:33N 55°16' E 012°55'1010.5
2017-Mar-21 09:34N 55°15' E 013°14'1210.3
2017-Mar-21 08:24N 55°14' E 013°35'910.3
2017-Mar-21 07:33N 55°14' E 013°50'1010.1
2017-Mar-21 06:32N 55°14' E 014°08'9 9.4
2017-Mar-21 05:33N 55°18' E 014°23'1010.5
2017-Mar-21 04:33N 55°26' E 014°34'1010.2
2017-Mar-21 03:33N 55°31' E 014°50'1010.1
2017-Mar-21 02:34N 55°36' E 015°05'1010.1
2017-Mar-21 01:34N 55°41' E 015°20'1010.1
2017-Mar-21 00:33N 55°47' E 015°36'1010.4
2017-Mar-20 23:34N 55°52' E 015°52'1110.6
2017-Mar-20 22:34N 55°57' E 016°08'1110.7
2017-Mar-20 21:34N 56°03' E 016°25'1110.8
2017-Mar-20 20:33N 56°09' E 016°41'1010.4
2017-Mar-20 19:34N 56°18' E 016°48'1110.6
2017-Mar-20 18:31N 56°29' E 016°53'  
Track history (hours):
 
Tides and Currents Weather Stations Pressure Air Temp Water Temp Dewpoint Dewpoint Depression Visibility Wind Speed Wind Dir Waves Ship Positions

Tor Viking

Last reported at 2017-Mar-28 07:33 UTC. Time now 2017-Mar-28 15:57 UTC.
Position N 56°41' W 000°22'.

Length 84 m; draft 6.7 m.

Type: Towing. MMSI: 266004000.

Date/timePositionNaut miles runAvg speedWind from/ knotsBaromVisibWave heightAir tempDewpointWater temp
2017-Mar-28 07:33N 56°41' W 000°22'1110.7
2017-Mar-28 06:33N 56°42' W 000°42'1110.9
2017-Mar-28 05:30N 56°42' W 001°03'1010.8
2017-Mar-28 04:33N 56°42' W 001°21'1111.0
2017-Mar-28 03:33N 56°42' W 001°41'1110.8
2017-Mar-28 02:33N 56°42' W 002°01'10 9.9
2017-Mar-28 01:33N 56°42' W 002°19'5 4.7
2017-Mar-28 00:29N 56°42' W 002°28'  
2017-Mar-25 10:33N 56°42' W 002°19'6 2.9
2017-Mar-25 08:31N 56°44' W 002°09'0 0.1
2017-Mar-25 07:30N 56°44' W 002°09'0 0.0
2017-Mar-25 06:33N 56°44' W 002°09'4 3.8
2017-Mar-25 05:29N 56°45' W 002°02'7 7.1
2017-Mar-25 04:33N 56°46' W 001°50'7 6.9
2017-Mar-25 03:33N 56°47' W 001°38'9 9.4
2017-Mar-25 02:33N 56°48' W 001°21'27810.6
2017-Mar-24 00:28N 57°33' E 007°05'5411.1
2017-Mar-23 19:33N 57°42' E 008°45'1110.8
2017-Mar-23 18:33N 57°44' E 009°05'1110.6
2017-Mar-23 17:32N 57°45' E 009°25'1210.8
2017-Mar-23 16:26N 57°47' E 009°47'2210.7
2017-Mar-23 14:22N 57°48' E 010°29'810.2
2017-Mar-23 13:33N 57°48' E 010°44'1010.3
2017-Mar-23 12:33N 57°42' E 010°60'1110.6
2017-Mar-23 11:33N 57°35' E 011°14'1111.0
2017-Mar-23 10:33N 57°26' E 011°28'1111.2
2017-Mar-23 09:33N 57°16' E 011°35'1311.5
2017-Mar-23 08:24N 57°04' E 011°44'2111.2
2017-Mar-23 06:33N 56°45' E 012°00'1410.4
2017-Mar-23 05:14N 56°32' E 012°10'2110.4
2017-Mar-23 03:14N 56°14' E 012°26'710.4
2017-Mar-23 02:33N 56°08' E 012°32'1010.1
2017-Mar-23 01:33N 55°59' E 012°42'6 5.6
2017-Mar-23 00:33N 55°54' E 012°45'0 0.0
2017-Mar-22 23:33N 55°54' E 012°45'0 0.0
2017-Mar-22 22:33N 55°54' E 012°45'0 0.1
2017-Mar-22 21:33N 55°54' E 012°45'0 0.0
2017-Mar-22 20:33N 55°54' E 012°45'2 2.5
2017-Mar-22 19:33N 55°52' E 012°49'1 1.0
2017-Mar-22 18:31N 55°51' E 012°50'0 0.0
2017-Mar-22 17:31N 55°51' E 012°50'0 0.0
2017-Mar-22 16:31N 55°51' E 012°50'0 0.0
2017-Mar-22 15:31N 55°51' E 012°50'0 0.0
2017-Mar-22 14:31N 55°51' E 012°50'0 0.0
2017-Mar-22 13:31N 55°51' E 012°50'0 0.0
2017-Mar-22 12:31N 55°51' E 012°50'0 0.0
2017-Mar-22 11:31N 55°51' E 012°50'0 0.0
2017-Mar-22 10:31N 55°51' E 012°50'0 0.0
2017-Mar-22 09:25N 55°51' E 012°50'0 0.0
2017-Mar-22 08:31N 55°51' E 012°50'0 0.0
2017-Mar-22 07:31N 55°51' E 012°50'0 0.0
2017-Mar-22 06:31N 55°51' E 012°50'0 0.0
2017-Mar-22 05:31N 55°51' E 012°50'0 0.0
2017-Mar-22 04:31N 55°51' E 012°50'0 0.0
2017-Mar-22 03:31N 55°51' E 012°50'0 0.0
2017-Mar-22 02:31N 55°51' E 012°50'0 0.0
2017-Mar-22 01:31N 55°51' E 012°50'0 0.0
2017-Mar-22 00:31N 55°51' E 012°50'0 0.0
2017-Mar-21 23:31N 55°51' E 012°50'0 0.0
2017-Mar-21 22:31N 55°51' E 012°50'0 0.0
2017-Mar-21 21:31N 55°51' E 012°50'0 0.0
2017-Mar-21 20:31N 55°51' E 012°50'0 0.0
2017-Mar-21 19:31N 55°51' E 012°50'0 0.0
2017-Mar-21 18:31N 55°51' E 012°50'0 0.0
2017-Mar-21 17:31N 55°51' E 012°50'0 0.0
2017-Mar-21 16:34N 55°51' E 012°50'3 3.2
2017-Mar-21 15:34N 55°53' E 012°45'6 6.0
2017-Mar-21 14:34N 55°47' E 012°43'8 7.6
2017-Mar-21 13:33N 55°40' E 012°42'9 9.2
2017-Mar-21 12:34N 55°31' E 012°43'1110.6
2017-Mar-21 11:34N 55°20' E 012°40'10 9.8
2017-Mar-21 10:33N 55°16' E 012°55'1010.5
2017-Mar-21 09:34N 55°15' E 013°14'1210.3
2017-Mar-21 08:24N 55°14' E 013°35'910.3
2017-Mar-21 07:33N 55°14' E 013°50'1010.1
2017-Mar-21 06:32N 55°14' E 014°08'9 9.4
2017-Mar-21 05:33N 55°18' E 014°23'1010.5
2017-Mar-21 04:33N 55°26' E 014°34'1010.2
2017-Mar-21 03:33N 55°31' E 014°50'1010.1
2017-Mar-21 02:34N 55°36' E 015°05'1010.1
2017-Mar-21 01:34N 55°41' E 015°20'1010.1
2017-Mar-21 00:33N 55°47' E 015°36'1010.4
2017-Mar-20 23:34N 55°52' E 015°52'1110.6
2017-Mar-20 22:34N 55°57' E 016°08'1110.7
2017-Mar-20 21:34N 56°03' E 016°25'1110.8
2017-Mar-20 20:33N 56°09' E 016°41'1010.4
2017-Mar-20 19:34N 56°18' E 016°48'1110.6
2017-Mar-20 18:31N 56°29' E 016°53'  

Dump ship's entire track history